Time;durP1;ratioP1;P1;durP2;ratioP2;P2;SDS_P1;SDS_P2;PMS_P1;PMS_P2;Temp;Humidity;BMP_temperature;BMP_pressure;BME280_temperature;BME280_humidity;BME280_pressure;Samples;Min_cycle;Max_cycle;Signal;HPM_P1;HPM_P2
2021/12/22 00:00:20;;;;;;;27.95;15.40;;;0.10;2201.60;;;;;;5033627;28;20105;-64
2021/12/22 00:02:46;;;;;;;52.97;25.25;;;0.10;2201.60;;;;;;5032440;28;20038;-66
2021/12/22 00:05:28;;;;;;;52.05;27.92;;;0.10;2201.60;;;;;;5032661;28;20041;-65
2021/12/22 00:07:54;;;;;;;40.72;24.38;;;0.20;2201.60;;;;;;5032390;28;20026;-65
2021/12/22 00:10:21;;;;;;;56.80;28.42;;;0.10;2201.60;;;;;;5032489;28;20025;-65
2021/12/22 00:12:49;;;;;;;27.20;14.43;;;0.20;2201.60;;;;;;5032547;28;20053;-64
2021/12/22 00:15:15;;;;;;;24.20;14.68;;;0.20;2201.60;;;;;;5032211;28;20087;-64
2021/12/22 00:17:42;;;;;;;25.60;14.43;;;0.20;2201.60;;;;;;5032601;28;20014;-63
2021/12/22 00:20:09;;;;;;;25.23;15.25;;;0.30;2201.60;;;;;;5032352;28;20052;-63
2021/12/22 00:22:36;;;;;;;31.42;17.50;;;0.10;2201.60;;;;;;5032223;28;20030;-63
2021/12/22 00:25:02;;;;;;;39.42;20.33;;;0.10;2201.60;;;;;;5032246;28;20033;-64
2021/12/22 00:27:28;;;;;;;70.50;34.70;;;0.20;2201.60;;;;;;5032011;28;20148;-65
2021/12/22 00:29:54;;;;;;;87.85;44.25;;;0.30;2201.60;;;;;;5032189;28;20104;-64
2021/12/22 00:32:21;;;;;;;96.65;49.13;;;0.50;2201.60;;;;;;5032207;28;20022;-65
2021/12/22 00:34:52;;;;;;;178.40;96.20;;;0.40;2201.60;;;;;;5031683;28;20111;-64
2021/12/22 00:37:22;;;;;;;215.30;112.80;;;0.40;2201.60;;;;;;5031864;28;20049;-64
2021/12/22 00:39:49;;;;;;;224.45;119.80;;;0.50;2201.60;;;;;;5031728;28;20543;-63
2021/12/22 00:42:16;;;;;;;137.10;74.60;;;0.50;2201.60;;;;;;5031882;28;20033;-64
2021/12/22 00:44:43;;;;;;;130.35;68.13;;;0.50;2201.60;;;;;;5031969;28;20103;-65
2021/12/22 00:47:09;;;;;;;138.38;71.20;;;0.60;2201.60;;;;;;5031916;28;20025;-65
2021/12/22 00:49:35;;;;;;;157.88;83.00;;;0.50;2201.60;;;;;;5031563;28;20029;-65
2021/12/22 00:52:02;;;;;;;133.38;71.78;;;0.30;2201.60;;;;;;5031294;28;20029;-66
2021/12/22 00:54:28;;;;;;;137.45;75.95;;;0.20;2201.60;;;;;;5031696;28;20029;-64
2021/12/22 00:57:03;;;;;;;118.72;70.13;;;0.30;2201.60;;;;;;5031587;28;20053;-64
2021/12/22 00:59:30;;;;;;;107.10;59.08;;;0.40;2201.60;;;;;;5031682;28;20029;-65
2021/12/22 01:01:55;;;;;;;68.43;37.83;;;0.50;2201.60;;;;;;5031484;28;20104;-64
2021/12/22 01:04:21;;;;;;;60.33;32.67;;;0.60;2201.60;;;;;;5031361;28;20141;-64
2021/12/22 01:06:47;;;;;;;66.63;34.53;;;0.50;2201.60;;;;;;5013333;28;20037;-64
2021/12/22 01:09:13;;;;;;;74.13;41.15;;;0.60;2201.60;;;;;;5031507;28;20057;-64
2021/12/22 01:11:39;;;;;;;87.65;49.80;;;0.40;2201.60;;;;;;5031322;28;20025;-64
2021/12/22 01:14:05;;;;;;;83.07;48.25;;;0.50;2201.60;;;;;;5031163;28;20483;-64
2021/12/22 01:16:31;;;;;;;50.33;28.80;;;0.40;2201.60;;;;;;5031613;28;20436;-64
2021/12/22 01:19:01;;;;;;;27.92;16.38;;;0.50;2201.60;;;;;;5031068;28;20503;-64
2021/12/22 01:24:21;;;;;;;26.58;13.00;;;0.60;2201.60;;;;;;5031399;28;20033;-62
2021/12/22 01:26:52;;;;;;;40.35;21.42;;;0.70;2201.60;;;;;;5030884;28;20029;-64
2021/12/22 01:29:18;;;;;;;28.48;16.00;;;0.70;2201.60;;;;;;5030991;28;20025;-65
2021/12/22 01:31:44;;;;;;;20.75;13.52;;;0.60;2201.60;;;;;;5031076;28;20026;-64
2021/12/22 01:34:11;;;;;;;31.40;18.42;;;0.70;2201.60;;;;;;5030628;28;20041;-64
2021/12/22 01:36:37;;;;;;;32.65;16.02;;;0.80;2201.60;;;;;;5030731;28;20025;-63
2021/12/22 01:39:05;;;;;;;29.17;17.30;;;0.70;2201.60;;;;;;5013321;28;20025;-65
2021/12/22 01:41:31;;;;;;;30.27;18.88;;;0.70;2201.60;;;;;;5013610;28;20104;-64
2021/12/22 01:43:57;;;;;;;28.20;16.63;;;0.60;2201.60;;;;;;5030718;28;20609;-64
2021/12/22 01:49:10;;;;;;;35.75;21.35;;;0.70;2201.60;;;;;;5030539;28;20395;-63
2021/12/22 01:51:39;;;;;;;30.60;17.63;;;0.70;2201.60;;;;;;5030478;28;20019;-63
2021/12/22 01:54:31;;;;;;;31.45;18.35;;;0.60;2201.60;;;;;;5030502;28;20052;-65
2021/12/22 01:57:06;;;;;;;32.07;19.87;;;0.60;2201.60;;;;;;5030305;28;20018;-64
2021/12/22 01:59:32;;;;;;;34.45;18.42;;;0.70;2201.60;;;;;;5030597;28;20026;-64
2021/12/22 02:02:00;;;;;;;32.30;19.45;;;0.60;2201.60;;;;;;5030442;28;20021;-64
2021/12/22 02:04:25;;;;;;;35.97;19.70;;;0.60;2201.60;;;;;;5030217;28;20038;-65
2021/12/22 02:06:51;;;;;;;31.73;17.17;;;0.80;2201.60;;;;;;5030501;28;20049;-63
2021/12/22 02:09:37;;;;;;;31.42;17.23;;;0.60;2201.60;;;;;;5030291;28;20025;-64
2021/12/22 02:12:05;;;;;;;35.08;20.27;;;0.60;2201.60;;;;;;5030192;28;20390;-64
2021/12/22 02:14:31;;;;;;;40.90;23.08;;;0.60;2201.60;;;;;;5030618;28;20029;-64
2021/12/22 02:16:57;;;;;;;20.77;13.80;;;0.60;2201.60;;;;;;5030388;28;20533;-64
2021/12/22 02:19:23;;;;;;;23.48;13.52;;;0.60;2201.60;;;;;;5030232;28;20030;-64
2021/12/22 02:21:54;;;;;;;21.63;11.90;;;0.50;2201.60;;;;;;5030091;28;20075;-64
2021/12/22 02:24:19;;;;;;;23.73;12.65;;;0.50;2201.60;;;;;;5030291;28;20029;-64
2021/12/22 02:27:00;;;;;;;23.85;12.38;;;0.60;2201.60;;;;;;5029876;28;20475;-64
2021/12/22 02:29:35;;;;;;;19.98;11.32;;;0.50;2201.60;;;;;;5030148;28;20029;-64
2021/12/22 02:32:09;;;;;;;20.42;12.07;;;0.40;2201.60;;;;;;5030339;28;20078;-64
2021/12/22 02:34:44;;;;;;;21.35;15.43;;;0.50;2201.60;;;;;;5029681;28;20053;-65
2021/12/22 02:37:14;;;;;;;83.20;46.00;;;0.50;2201.60;;;;;;5030116;28;20060;-63
2021/12/22 02:39:57;;;;;;;87.60;55.03;;;0.50;2201.60;;;;;;5030245;28;20033;-64
2021/12/22 02:42:25;;;;;;;83.90;51.90;;;0.60;2201.60;;;;;;5030094;28;20208;-64
2021/12/22 02:44:51;;;;;;;59.17;34.15;;;0.70;2201.60;;;;;;5012176;28;20068;-64
2021/12/22 02:47:18;;;;;;;60.60;31.65;;;0.80;2201.60;;;;;;4995791;28;20488;-64
2021/12/22 02:49:45;;;;;;;52.70;29.77;;;0.60;2201.60;;;;;;5029796;28;20036;-64
2021/12/22 02:52:11;;;;;;;53.85;32.35;;;0.60;2201.60;;;;;;5029897;28;20024;-64
2021/12/22 02:54:43;;;;;;;57.95;32.60;;;0.50;2201.60;;;;;;5012026;28;20026;-64
2021/12/22 02:57:22;;;;;;;42.80;26.02;;;0.50;2201.60;;;;;;5029703;28;20383;-64
2021/12/22 03:03:07;;;;;;;69.25;38.72;;;0.60;2201.60;;;;;;4968718;28;20046;-64
2021/12/22 03:05:28;;;;;;;68.43;39.55;;;0.60;2201.60;;;;;;4968558;28;20066;-64
2021/12/22 03:07:54;;;;;;;72.80;42.20;;;0.70;2201.60;;;;;;4968960;28;20074;-64
2021/12/22 03:10:20;;;;;;;81.88;42.63;;;0.70;2201.60;;;;;;4968789;28;20035;-65
2021/12/22 03:12:51;;;;;;;82.35;43.13;;;0.70;2201.60;;;;;;4968718;28;20023;-63
2021/12/22 03:15:18;;;;;;;65.53;35.00;;;0.70;2201.60;;;;;;4972171;28;20034;-64
2021/12/22 03:17:48;;;;;;;58.53;33.35;;;0.50;2201.60;;;;;;4972733;28;20035;-65
2021/12/22 03:20:15;;;;;;;58.53;35.13;;;0.50;2201.60;;;;;;4972483;28;20035;-64
2021/12/22 03:22:47;;;;;;;68.05;35.10;;;0.60;2201.60;;;;;;4972697;28;20030;-65
2021/12/22 03:25:16;;;;;;;47.10;28.65;;;0.60;2201.60;;;;;;4972554;28;20050;-63
2021/12/22 03:27:44;;;;;;;50.65;26.92;;;0.60;2201.60;;;;;;4972467;28;20046;-63
2021/12/22 03:30:11;;;;;;;46.63;27.63;;;0.70;2201.60;;;;;;4972706;28;20034;-63
2021/12/22 03:32:37;;;;;;;52.72;28.83;;;0.70;2201.60;;;;;;4972034;28;20533;-66
2021/12/22 03:35:03;;;;;;;60.65;33.00;;;0.70;2201.60;;;;;;4972476;28;20098;-64
2021/12/22 03:37:29;;;;;;;58.47;32.28;;;0.70;2201.60;;;;;;4972314;28;20026;-63
2021/12/22 03:39:55;;;;;;;57.95;35.05;;;0.80;2201.60;;;;;;5011001;28;20111;-64
2021/12/22 03:42:21;;;;;;;56.95;30.75;;;0.80;2201.60;;;;;;5033174;28;20428;-64
2021/12/22 03:44:46;;;;;;;63.30;34.83;;;0.80;2201.60;;;;;;5032859;28;20073;-64
2021/12/22 03:47:12;;;;;;;67.35;35.30;;;0.70;2201.60;;;;;;5033077;28;20376;-64
2021/12/22 03:49:38;;;;;;;78.13;43.53;;;0.70;2201.60;;;;;;5032746;28;20033;-63
2021/12/22 03:52:05;;;;;;;86.05;48.42;;;0.70;2201.60;;;;;;5033107;28;20037;-64
2021/12/22 03:54:31;;;;;;;60.78;35.95;;;0.70;2201.60;;;;;;5033212;28;20379;-64
2021/12/22 03:56:57;;;;;;;48.63;28.40;;;0.70;2201.60;;;;;;5032499;28;20112;-64
2021/12/22 03:59:24;;;;;;;34.90;22.05;;;0.70;2201.60;;;;;;5032723;28;20076;-64
2021/12/22 04:01:50;;;;;;;42.08;23.67;;;0.70;2201.60;;;;;;5032424;28;20036;-65
2021/12/22 04:04:18;;;;;;;39.63;26.67;;;0.60;2201.60;;;;;;5032369;28;20116;-66
2021/12/22 04:06:48;;;;;;;55.47;32.63;;;0.60;2201.60;;;;;;5032894;28;20021;-64
2021/12/22 04:09:15;;;;;;;66.43;39.75;;;0.70;2201.60;;;;;;5032677;28;20034;-66
2021/12/22 04:11:44;;;;;;;70.32;41.25;;;0.80;2201.60;;;;;;5032413;28;20045;-64
2021/12/22 04:14:11;;;;;;;79.10;44.05;;;0.70;2201.60;;;;;;5032459;28;20108;-65
2021/12/22 04:16:37;;;;;;;137.88;77.35;;;0.90;2201.60;;;;;;5032296;28;20028;-64
2021/12/22 04:19:03;;;;;;;109.32;57.78;;;0.90;2201.60;;;;;;5032611;28;20021;-65
2021/12/22 04:21:30;;;;;;;72.80;43.38;;;0.90;2201.60;;;;;;5032551;28;20021;-67
2021/12/22 04:23:56;;;;;;;66.95;40.58;;;25.60;2201.60;;;;;;5032092;28;20032;-65
2021/12/22 04:26:22;;;;;;;79.47;44.03;;;0.90;2201.60;;;;;;5013315;28;20029;-64
2021/12/22 04:28:48;;;;;;;114.05;62.08;;;0.90;2201.60;;;;;;5032242;28;20491;-64
2021/12/22 04:31:14;;;;;;;74.35;41.25;;;0.90;2201.60;;;;;;5032300;28;20022;-65
2021/12/22 04:33:40;;;;;;;63.40;36.22;;;25.60;2201.60;;;;;;5031975;28;20095;-63
2021/12/22 04:36:05;;;;;;;55.00;33.10;;;25.60;2201.60;;;;;;5032133;28;20108;-65
2021/12/22 04:38:31;;;;;;;65.35;36.85;;;0.90;2201.60;;;;;;5033282;28;20018;-66
2021/12/22 04:40:57;;;;;;;42.92;24.55;;;25.60;2201.60;;;;;;5033199;28;20064;-65
2021/12/22 04:43:23;;;;;;;58.22;31.42;;;25.60;2201.60;;;;;;5032892;28;20025;-64
2021/12/22 04:45:48;;;;;;;49.15;28.45;;;25.60;2201.60;;;;;;5031916;28;20321;-66
2021/12/22 04:48:14;;;;;;;40.55;21.52;;;25.60;2201.60;;;;;;5032093;28;20057;-65
2021/12/22 04:50:40;;;;;;;35.28;19.75;;;25.60;2201.60;;;;;;5032042;28;20055;-63
2021/12/22 04:55:32;;;;;;;35.10;20.48;;;25.60;2201.60;;;;;;5032078;28;20025;-64
2021/12/22 04:57:59;;;;;;;37.45;22.40;;;25.60;2201.60;;;;;;5031476;28;20113;-63
2021/12/22 05:00:30;;;;;;;47.55;27.08;;;0.80;2201.60;;;;;;5031721;28;20091;-63
2021/12/22 05:02:57;;;;;;;63.53;35.67;;;0.80;2201.60;;;;;;5031405;28;20553;-64
2021/12/22 05:05:23;;;;;;;43.08;25.77;;;0.60;2201.60;;;;;;5031475;28;20049;-63
2021/12/22 05:07:49;;;;;;;36.72;21.98;;;0.40;2201.60;;;;;;5031424;28;20028;-63
2021/12/22 05:10:16;;;;;;;33.80;23.42;;;0.40;2201.60;;;;;;5031243;28;20033;-64
2021/12/22 05:12:43;;;;;;;40.97;25.85;;;0.40;2201.60;;;;;;5031366;28;20365;-63
2021/12/22 05:15:10;;;;;;;43.15;25.65;;;0.40;2201.60;;;;;;5031366;28;20033;-63
2021/12/22 05:20:09;;;;;;;42.53;24.88;;;0.40;2201.60;;;;;;5031328;28;20041;-63
2021/12/22 05:22:35;;;;;;;43.85;22.38;;;0.40;2201.60;;;;;;5031151;28;20022;-64
2021/12/22 05:25:02;;;;;;;48.40;29.58;;;0.40;2201.60;;;;;;5031316;28;20038;-64
2021/12/22 05:27:29;;;;;;;56.72;36.22;;;0.30;2201.60;;;;;;5030844;28;20025;-63
2021/12/22 05:29:55;;;;;;;69.78;41.45;;;0.20;2201.60;;;;;;5031092;28;20451;-64
2021/12/22 05:32:24;;;;;;;75.78;45.47;;;0.20;2201.60;;;;;;5031026;28;20053;-63
2021/12/22 05:34:50;;;;;;;83.00;45.80;;;0.10;2201.60;;;;;;5031014;28;20522;-64
2021/12/22 05:37:16;;;;;;;48.60;28.75;;;0.10;2201.60;;;;;;5030619;28;20022;-64
2021/12/22 05:39:42;;;;;;;98.45;50.20;;;0.10;2201.60;;;;;;5031058;28;20083;-63
2021/12/22 05:42:07;;;;;;;97.82;53.50;;;0.00;2201.60;;;;;;5030712;28;20108;-63
2021/12/22 05:44:33;;;;;;;186.90;98.07;;;12.90;2201.60;;;;;;5030822;28;20391;-64
2021/12/22 05:46:59;;;;;;;189.27;106.28;;;13.00;2201.60;;;;;;5012858;28;20034;-63
2021/12/22 05:49:25;;;;;;;180.35;100.28;;;12.90;2201.60;;;;;;5030587;28;20491;-63
2021/12/22 05:51:50;;;;;;;189.95;115.10;;;12.90;2201.60;;;;;;5030786;28;20024;-64
2021/12/22 05:54:16;;;;;;;172.52;97.53;;;13.00;2201.60;;;;;;5029970;28;20419;-64
2021/12/22 05:56:42;;;;;;;177.95;103.28;;;13.00;2201.60;;;;;;5012160;28;20030;-65
2021/12/22 05:59:07;;;;;;;260.13;145.00;;;13.00;2201.60;;;;;;5010813;28;20022;-65
2021/12/22 06:01:33;;;;;;;297.98;172.77;;;13.10;2201.60;;;;;;5010849;28;20021;-64
2021/12/22 06:04:00;;;;;;;139.93;80.38;;;13.10;2201.60;;;;;;5010701;28;20100;-63
2021/12/22 06:06:26;;;;;;;79.05;41.70;;;13.00;2201.60;;;;;;5010654;28;20553;-63
2021/12/22 06:08:53;;;;;;;94.43;52.35;;;13.10;2201.60;;;;;;5010809;28;20404;-63
2021/12/22 06:11:19;;;;;;;187.35;102.80;;;12.90;2201.60;;;;;;5010317;28;20392;-64
2021/12/22 06:13:45;;;;;;;209.50;121.25;;;13.00;2201.60;;;;;;5010798;28;20426;-64
2021/12/22 06:16:10;;;;;;;235.20;135.45;;;12.90;2201.60;;;;;;5010864;28;20109;-62
2021/12/22 06:18:42;;;;;;;207.48;112.90;;;13.10;2201.60;;;;;;5010500;28;20472;-63
2021/12/22 06:21:08;;;;;;;194.13;104.97;;;13.00;2201.60;;;;;;5010374;28;20032;-65
2021/12/22 06:23:34;;;;;;;181.60;106.40;;;13.00;2201.60;;;;;;5010465;28;20049;-65
2021/12/22 06:25:59;;;;;;;184.45;102.63;;;12.90;2201.60;;;;;;5010465;28;20413;-65
2021/12/22 06:28:25;;;;;;;195.80;104.00;;;12.90;2201.60;;;;;;5010372;28;20022;-64
2021/12/22 06:30:51;;;;;;;191.25;102.60;;;0.00;2201.60;;;;;;5010521;28;20068;-65
2021/12/22 06:33:17;;;;;;;180.90;97.68;;;0.10;2201.60;;;;;;5010122;28;20022;-65
2021/12/22 06:35:42;;;;;;;215.18;116.68;;;0.20;2201.60;;;;;;5010504;28;20477;-64
2021/12/22 06:38:08;;;;;;;493.08;272.15;;;0.30;2201.60;;;;;;5010213;28;20465;-64
2021/12/22 06:40:34;;;;;;;434.75;235.73;;;0.20;2201.60;;;;;;5010355;28;20080;-65
2021/12/22 06:43:00;;;;;;;225.70;118.75;;;0.40;2201.60;;;;;;5010383;28;20022;-64
2021/12/22 06:45:25;;;;;;;164.05;88.40;;;0.50;2201.60;;;;;;5010054;28;20384;-65
2021/12/22 06:47:52;;;;;;;288.30;153.65;;;0.70;2201.60;;;;;;5010291;28;20018;-64
2021/12/22 06:50:18;;;;;;;147.43;84.03;;;0.80;2201.60;;;;;;5013886;28;20101;-72
2021/12/22 06:52:44;;;;;;;155.88;82.90;;;0.70;2201.60;;;;;;5014257;28;20030;-64
2021/12/22 06:55:10;;;;;;;150.50;86.65;;;0.60;2201.60;;;;;;5014361;28;20072;-64
2021/12/22 06:57:36;;;;;;;217.20;120.97;;;0.60;2201.60;;;;;;5013966;28;20120;-64
2021/12/22 07:00:05;;;;;;;214.95;127.20;;;0.60;2201.60;;;;;;5014718;28;20375;-65
2021/12/22 07:02:35;;;;;;;212.77;128.20;;;0.60;2201.60;;;;;;5014208;28;20030;-64
2021/12/22 07:05:02;;;;;;;229.80;135.88;;;0.70;2201.60;;;;;;5014153;28;20045;-63
2021/12/22 07:07:27;;;;;;;178.23;108.18;;;0.90;2201.60;;;;;;5013752;28;20026;-63
2021/12/22 07:09:53;;;;;;;139.88;80.32;;;25.60;2201.60;;;;;;5014148;28;20076;-64
2021/12/22 07:12:19;;;;;;;102.38;57.20;;;25.60;2201.60;;;;;;5013588;28;20100;-63
2021/12/22 07:14:45;;;;;;;113.43;64.35;;;25.60;2201.60;;;;;;5013650;28;20022;-63
2021/12/22 07:17:10;;;;;;;126.53;71.90;;;25.70;2201.60;;;;;;5013902;28;20025;-63
2021/12/22 07:19:36;;;;;;;128.20;76.57;;;25.80;2201.60;;;;;;4995873;28;20385;-63
2021/12/22 07:22:02;;;;;;;107.55;56.80;;;25.90;2201.60;;;;;;5013906;28;20029;-64
2021/12/22 07:24:28;;;;;;;66.10;36.97;;;25.80;2201.60;;;;;;5013334;28;20108;-63
2021/12/22 07:26:53;;;;;;;40.20;24.83;;;25.90;2201.60;;;;;;5013627;28;20030;-63
2021/12/22 07:29:19;;;;;;;34.17;21.52;;;26.00;2201.60;;;;;;5013478;28;20037;-63
2021/12/22 07:31:45;;;;;;;38.08;22.13;;;26.20;2201.60;;;;;;5013498;28;20033;-64
2021/12/22 07:34:19;;;;;;;40.25;23.20;;;26.40;2201.60;;;;;;5013358;28;20457;-63
2021/12/22 07:37:34;;;;;;;38.88;24.42;;;26.30;2201.60;;;;;;5013402;28;20064;-63
2021/12/22 07:39:59;;;;;;;40.42;21.48;;;26.30;2201.60;;;;;;4925470;29;20028;-63
2021/12/22 07:42:25;;;;;;;62.88;34.60;;;26.30;2201.60;;;;;;4933531;29;20047;-64
2021/12/22 07:44:51;;;;;;;80.28;48.17;;;26.30;2201.60;;;;;;4933656;29;20530;-63
2021/12/22 07:47:16;;;;;;;52.58;30.80;;;26.30;2201.60;;;;;;4933564;29;20028;-63
2021/12/22 07:49:42;;;;;;;36.10;21.27;;;26.50;2201.60;;;;;;4933796;29;20039;-63
2021/12/22 07:52:08;;;;;;;30.27;20.73;;;26.50;2201.60;;;;;;4933501;29;20565;-65
2021/12/22 07:54:34;;;;;;;37.60;24.40;;;51.30;2227.20;;;;;;4933598;29;20035;-64
2021/12/22 07:57:00;;;;;;;34.20;20.83;;;51.40;2227.20;;;;;;4933597;29;20386;-63
2021/12/22 07:59:25;;;;;;;35.92;21.77;;;51.70;2227.20;;;;;;4933115;29;20378;-64
2021/12/22 08:01:51;;;;;;;38.90;23.05;;;51.70;2227.20;;;;;;4933533;29;20410;-63
2021/12/22 08:04:17;;;;;;;34.22;20.88;;;51.80;2227.20;;;;;;4933093;29;20079;-64
2021/12/22 08:06:42;;;;;;;43.40;26.40;;;51.90;2227.20;;;;;;4933443;29;20038;-63
2021/12/22 08:09:08;;;;;;;49.95;31.70;;;51.90;2227.20;;;;;;4933134;29;20561;-64
2021/12/22 08:11:34;;;;;;;56.78;34.75;;;52.00;2227.20;;;;;;4933258;29;20139;-64
2021/12/22 08:14:00;;;;;;;50.67;30.25;;;52.10;2227.20;;;;;;4933291;29;20027;-63
2021/12/22 08:16:26;;;;;;;37.03;25.27;;;76.80;2227.20;;;;;;4955504;28;20228;-64
2021/12/22 08:18:51;;;;;;;38.95;24.42;;;52.10;2227.20;;;;;;5012708;28;20479;-63
2021/12/22 08:21:17;;;;;;;72.88;46.15;;;76.80;2227.20;;;;;;5012367;28;20029;-64
2021/12/22 08:23:43;;;;;;;73.18;45.40;;;77.00;2227.20;;;;;;5012492;28;20026;-63
2021/12/22 08:26:09;;;;;;;87.60;51.70;;;77.20;2227.20;;;;;;5012362;28;20546;-64
2021/12/22 08:28:34;;;;;;;271.83;154.20;;;77.30;2227.20;;;;;;5012276;28;20049;-65
2021/12/22 08:31:00;;;;;;;296.73;175.38;;;77.30;2227.20;;;;;;5012572;28;20029;-64
2021/12/22 08:33:30;;;;;;;331.42;196.07;;;77.10;2227.20;;;;;;5012204;28;20072;-65
2021/12/22 08:38:53;;;;;;;210.25;123.22;;;76.90;2227.20;;;;;;5012542;28;20036;-64
2021/12/22 08:41:31;;;;;;;189.43;114.50;;;77.10;2227.20;;;;;;5012068;28;20109;-64
2021/12/22 08:44:00;;;;;;;181.63;109.93;;;77.20;2227.20;;;;;;5011892;28;20033;-64
2021/12/22 08:46:27;;;;;;;174.93;113.93;;;77.60;2227.20;;;;;;5011972;28;20037;-63
2021/12/22 08:48:53;;;;;;;190.00;113.22;;;103.00;2227.20;;;;;;5011967;28;20113;-64
2021/12/22 08:51:18;;;;;;;220.07;139.25;;;103.30;2227.20;;;;;;5012073;28;20057;-64
2021/12/22 08:53:44;;;;;;;188.93;121.00;;;128.30;2252.80;;;;;;5012205;28;20456;-64
2021/12/22 08:56:10;;;;;;;208.88;126.60;;;128.40;2252.80;;;;;;5011943;28;20049;-64
2021/12/22 08:58:36;;;;;;;193.88;125.25;;;128.40;2252.80;;;;;;5011613;28;20033;-64
2021/12/22 09:01:03;;;;;;;224.32;144.52;;;154.00;2252.80;;;;;;5011850;28;20109;-64
2021/12/22 09:03:29;;;;;;;193.25;125.75;;;154.20;2201.60;;;;;;5011853;28;20025;-64
2021/12/22 09:05:54;;;;;;;121.28;80.90;;;154.00;2176.00;;;;;;5011384;28;20046;-64
2021/12/22 09:08:20;;;;;;;105.68;68.13;;;154.00;2150.40;;;;;;5011915;28;20026;-64
2021/12/22 09:10:46;;;;;;;73.85;46.78;;;153.90;2150.40;;;;;;5011366;28;20392;-65
2021/12/22 09:13:13;;;;;;;59.28;38.45;;;153.80;2099.20;;;;;;5011375;28;20440;-64
2021/12/22 09:15:39;;;;;;;65.82;46.83;;;154.00;2099.20;;;;;;4977363;28;20491;-65
2021/12/22 09:18:05;;;;;;;89.90;58.88;;;154.20;2124.80;;;;;;5011235;28;20385;-64
2021/12/22 09:20:31;;;;;;;84.13;57.00;;;179.20;2073.60;;;;;;5011549;28;20032;-64
2021/12/22 09:22:57;;;;;;;128.95;84.53;;;154.50;2022.40;;;;;;5011241;28;20116;-64
2021/12/22 09:25:23;;;;;;;84.32;56.38;;;154.50;2048.00;;;;;;5011520;28;20512;-64
2021/12/22 09:27:49;;;;;;;76.18;52.88;;;179.50;2022.40;;;;;;5011162;28;20057;-64
2021/12/22 09:30:14;;;;;;;103.03;69.93;;;179.80;1945.60;;;;;;5011399;28;20030;-64
2021/12/22 09:32:40;;;;;;;116.70;73.60;;;179.90;1920.00;;;;;;5011373;28;20365;-64
2021/12/22 09:35:07;;;;;;;116.13;77.45;;;179.50;1945.60;;;;;;5010978;28;20456;-65
2021/12/22 09:37:33;;;;;;;68.35;44.25;;;179.20;1971.20;;;;;;5011180;28;20022;-64
2021/12/22 09:39:58;;;;;;;53.25;36.13;;;179.40;1996.80;;;;;;5011253;28;20026;-64
2021/12/22 09:42:24;;;;;;;59.40;38.20;;;179.70;1920.00;;;;;;5011171;28;20443;-66
2021/12/22 09:44:50;;;;;;;63.72;36.55;;;179.40;1843.20;;;;;;5011168;28;20045;-63
2021/12/22 09:47:26;;;;;;;46.83;31.55;;;179.40;1894.40;;;;;;5010969;28;20026;-64
2021/12/22 09:52:30;;;;;;;29.13;20.17;;;179.60;1894.40;;;;;;5011224;28;20056;-62
2021/12/22 09:54:59;;;;;;;22.27;14.75;;;179.70;1843.20;;;;;;5010939;28;20034;-63
2021/12/22 09:57:26;;;;;;;30.08;18.75;;;179.60;1817.60;;;;;;5010810;28;20113;-64
2021/12/22 09:59:54;;;;;;;28.02;19.10;;;179.80;1792.00;;;;;;5010870;28;20468;-64
2021/12/22 10:02:22;;;;;;;30.38;18.08;;;179.60;1766.40;;;;;;5010698;28;20105;-63
2021/12/22 10:04:48;;;;;;;40.40;30.40;;;179.60;1715.20;;;;;;4995171;28;20068;-63
2021/12/22 10:07:23;;;;;;;61.38;38.63;;;179.60;1740.80;;;;;;5012865;28;20441;-63
2021/12/22 10:09:49;;;;;;;123.93;77.60;;;179.70;1740.80;;;;;;5012512;28;20096;-62
2021/12/22 10:12:20;;;;;;;82.75;49.25;;;179.90;1740.80;;;;;;5010690;28;20030;-63
2021/12/22 10:14:50;;;;;;;56.55;37.17;;;179.50;1740.80;;;;;;5010475;28;20492;-63
2021/12/22 10:17:34;;;;;;;64.43;44.22;;;179.40;1740.80;;;;;;5010675;28;20037;-63
2021/12/22 10:20:06;;;;;;;86.15;48.65;;;179.40;1715.20;;;;;;5010642;28;20038;-63
2021/12/22 10:22:44;;;;;;;67.28;42.65;;;179.30;1715.20;;;;;;5010493;28;20026;-63
2021/12/22 10:25:12;;;;;;;92.10;57.28;;;179.30;1766.40;;;;;;5010314;28;20036;-63
2021/12/22 10:27:41;;;;;;;73.63;45.20;;;179.20;1817.60;;;;;;5010274;28;20100;-64
2021/12/22 10:30:27;;;;;;;152.52;107.40;;;154.50;1817.60;;;;;;5010491;28;20451;-63
2021/12/22 10:33:05;;;;;;;116.78;76.43;;;179.30;1792.00;;;;;;5010258;28;20040;-63
2021/12/22 10:35:33;;;;;;;59.42;35.75;;;154.50;1715.20;;;;;;5010269;28;20060;-64
2021/12/22 10:38:01;;;;;;;86.57;56.35;;;179.40;1740.80;;;;;;5010228;28;20033;-64
2021/12/22 10:40:34;;;;;;;33.75;22.13;;;179.40;1792.00;;;;;;5010304;28;20033;-63
2021/12/22 10:43:01;;;;;;;52.47;31.33;;;179.40;1766.40;;;;;;5010487;28;20034;-64
2021/12/22 10:45:30;;;;;;;48.05;28.80;;;179.30;1689.60;;;;;;5009986;28;20477;-64
2021/12/22 10:50:44;;;;;;;35.50;20.90;;;179.40;1536.00;;;;;;5010422;28;20076;-63
2021/12/22 10:53:13;;;;;;;16.23;9.23;;;179.40;1561.60;;;;;;5010244;28;20548;-62
2021/12/22 10:55:42;;;;;;;25.02;16.88;;;179.60;1510.40;;;;;;5010021;28;20498;-63
2021/12/22 10:58:29;;;;;;;22.77;13.32;;;179.60;1536.00;;;;;;5009906;28;20049;-64
2021/12/22 11:01:14;;;;;;;22.20;14.77;;;179.20;1484.80;;;;;;5010007;28;20034;-65
2021/12/22 11:03:51;;;;;;;36.38;22.58;;;179.20;1510.40;;;;;;5010261;28;20026;-64
2021/12/22 11:06:26;;;;;;;72.68;42.25;;;179.40;1561.60;;;;;;5009875;28;20040;-64
2021/12/22 11:09:15;;;;;;;287.13;155.05;;;179.50;1587.20;;;;;;5010133;28;20026;-64
2021/12/22 11:11:42;;;;;;;82.32;50.72;;;154.30;1561.60;;;;;;5009904;28;20591;-63
2021/12/22 11:14:12;;;;;;;83.45;56.22;;;154.20;1561.60;;;;;;5009629;28;20022;-64
2021/12/22 11:17:18;;;;;;;94.82;63.55;;;153.80;1587.20;;;;;;5009939;28;20026;-64
2021/12/22 11:19:50;;;;;;;91.63;59.30;;;153.90;1638.40;;;;;;5010011;28;20029;-64
2021/12/22 11:22:24;;;;;;;123.90;79.20;;;153.70;1664.00;;;;;;5009709;28;20504;-63
2021/12/22 11:24:52;;;;;;;81.43;52.53;;;153.70;1664.00;;;;;;5009771;28;20030;-64
2021/12/22 11:27:27;;;;;;;85.93;53.05;;;153.70;1638.40;;;;;;5009650;28;20484;-64
2021/12/22 11:29:55;;;;;;;75.70;45.85;;;128.70;1612.80;;;;;;5009603;28;20101;-63
2021/12/22 11:32:23;;;;;;;58.75;37.22;;;128.80;1612.80;;;;;;5009940;28;20084;-63
2021/12/22 11:34:54;;;;;;;66.47;40.33;;;128.90;1561.60;;;;;;5010711;28;20052;-64
2021/12/22 11:37:21;;;;;;;43.35;27.45;;;153.80;1561.60;;;;;;5013224;28;20084;-63
2021/12/22 11:39:48;;;;;;;62.15;38.78;;;153.90;1536.00;;;;;;5013060;28;20430;-65
2021/12/22 11:42:15;;;;;;;106.00;73.63;;;153.80;1510.40;;;;;;5013317;28;20384;-63
2021/12/22 11:44:48;;;;;;;66.97;42.95;;;153.90;1587.20;;;;;;5013383;28;20021;-64
2021/12/22 11:47:18;;;;;;;61.35;41.05;;;153.90;1561.60;;;;;;5013469;28;20399;-64
2021/12/22 11:50:01;;;;;;;56.58;34.75;;;154.20;1561.60;;;;;;5013486;28;20025;-64
2021/12/22 11:52:32;;;;;;;150.90;99.13;;;154.40;1561.60;;;;;;5013199;28;20044;-64
2021/12/22 11:55:36;;;;;;;72.53;44.85;;;154.40;1536.00;;;;;;5012958;28;20472;-64
2021/12/22 11:58:14;;;;;;;;;;;154.30;1561.60;;;;;;4937056;29;20039;-64
2021/12/22 12:01:08;;;;;;;153.65;91.97;;;154.20;1587.20;;;;;;4952812;29;19910;-64
2021/12/22 12:03:44;;;;;;;179.13;115.60;;;154.10;1664.00;;;;;;4952678;29;20409;-65
2021/12/22 12:06:16;;;;;;;209.02;125.95;;;153.80;1740.80;;;;;;4952362;29;20074;-64
2021/12/22 12:08:47;;;;;;;211.82;130.80;;;154.00;1766.40;;;;;;4952628;29;20046;-64
2021/12/22 12:11:46;;;;;;;180.95;115.93;;;154.00;1766.40;;;;;;4952490;29;20043;-64
2021/12/22 12:14:38;;;;;;;187.70;116.68;;;128.90;1766.40;;;;;;4913765;29;20115;-65
2021/12/22 12:23:23;;;;;;;125.35;83.32;;;154.00;1740.80;;;;;;4914335;29;20525;-64
2021/12/22 12:25:48;;;;;;;131.13;80.75;;;153.70;1715.20;;;;;;4913850;29;20051;-63
2021/12/22 12:28:16;;;;;;;121.07;80.10;;;128.90;1715.20;;;;;;4913991;29;20033;-64
2021/12/22 12:30:48;;;;;;;109.72;70.30;;;128.90;1689.60;;;;;;4913866;29;20048;-64
2021/12/22 12:33:22;;;;;;;100.00;60.15;;;128.70;1715.20;;;;;;4916984;28;20032;-64
2021/12/22 12:35:53;;;;;;;97.85;61.22;;;128.90;1715.20;;;;;;4971061;28;20026;-64
2021/12/22 12:38:24;;;;;;;107.80;69.32;;;153.60;1715.20;;;;;;4971103;28;20103;-64
2021/12/22 12:41:02;;;;;;;122.55;74.15;;;153.60;1689.60;;;;;;4971198;28;20022;-64